createdAt,value
2018-01-07T00:02:01.035Z,3.00
2018-01-07T00:04:27.252Z,3.00
2018-01-07T00:06:53.446Z,2.90
2018-01-07T00:09:20.327Z,2.90
2018-01-07T00:11:46.502Z,2.90
2018-01-07T00:14:12.678Z,3.00
2018-01-07T00:16:38.872Z,2.90
2018-01-07T00:19:05.845Z,3.00
2018-01-07T00:21:32.016Z,2.90
2018-01-07T00:23:58.191Z,2.90
2018-01-07T00:26:24.373Z,2.80
2018-01-07T00:28:50.586Z,2.90
2018-01-07T00:31:16.793Z,2.90
2018-01-07T00:33:42.971Z,3.00
2018-01-07T00:36:09.172Z,2.80
2018-01-07T00:38:35.373Z,2.70
2018-01-07T00:41:01.561Z,2.70
2018-01-07T00:43:28.478Z,2.70
2018-01-07T00:45:54.707Z,2.70
2018-01-07T00:48:20.959Z,2.70
2018-01-07T00:50:47.102Z,2.70
2018-01-07T00:53:14.058Z,2.70
2018-01-07T00:55:40.262Z,2.70
2018-01-07T00:58:06.430Z,2.70
2018-01-07T01:00:32.693Z,2.60
2018-01-07T01:02:58.832Z,2.70
2018-01-07T01:05:25.797Z,2.80
2018-01-07T01:07:52.741Z,3.00
2018-01-07T01:10:19.677Z,2.90
2018-01-07T01:12:45.801Z,2.90
2018-01-07T01:15:11.976Z,2.90
2018-01-07T01:17:38.135Z,2.90
2018-01-07T01:20:05.066Z,2.90
2018-01-07T01:22:31.278Z,2.90
2018-01-07T01:24:57.473Z,2.80
2018-01-07T01:27:23.686Z,2.80
2018-01-07T01:29:49.896Z,2.90
2018-01-07T01:32:16.117Z,2.80
2018-01-07T01:34:42.355Z,2.70
2018-01-07T01:37:09.286Z,2.90
2018-01-07T01:39:35.548Z,2.90
2018-01-07T01:42:02.537Z,2.80
2018-01-07T01:44:28.752Z,2.80
2018-01-07T01:46:54.997Z,2.80
2018-01-07T01:49:22.030Z,2.90
2018-01-07T01:51:48.230Z,2.90
2018-01-07T01:54:15.144Z,2.90
2018-01-07T01:56:41.275Z,2.80
2018-01-07T01:59:07.415Z,2.80
2018-01-07T02:01:33.651Z,2.70
2018-01-07T02:04:00.552Z,2.70
2018-01-07T02:06:26.695Z,2.70
2018-01-07T02:08:52.893Z,2.70
2018-01-07T02:11:19.055Z,2.70
2018-01-07T02:13:45.996Z,2.70
2018-01-07T02:16:12.234Z,2.70
2018-01-07T02:18:38.358Z,2.70
2018-01-07T02:21:04.520Z,2.90
2018-01-07T02:23:31.466Z,2.90
2018-01-07T02:25:57.664Z,2.80
2018-01-07T02:28:24.623Z,2.80
2018-01-07T02:30:51.595Z,2.90
2018-01-07T02:33:17.824Z,2.90
2018-01-07T02:35:44.034Z,2.90
2018-01-07T02:38:10.282Z,2.80
2018-01-07T02:40:36.439Z,2.80
2018-01-07T02:43:02.618Z,2.80
2018-01-07T02:45:29.542Z,2.80
2018-01-07T02:47:55.720Z,2.80
2018-01-07T02:50:21.876Z,2.90
2018-01-07T02:52:48.060Z,3.00
2018-01-07T02:55:14.315Z,2.90
2018-01-07T02:57:40.481Z,3.00
2018-01-07T03:00:06.723Z,3.00
2018-01-07T03:02:33.592Z,3.10
2018-01-07T03:04:59.815Z,3.00
2018-01-07T03:07:26.019Z,3.10
2018-01-07T03:09:52.923Z,3.30
2018-01-07T03:12:19.160Z,3.30
2018-01-07T03:14:45.344Z,3.30
2018-01-07T03:17:11.583Z,3.30
2018-01-07T03:19:37.736Z,3.30
2018-01-07T03:22:03.994Z,3.40
2018-01-07T03:24:30.908Z,3.40
2018-01-07T03:26:57.100Z,3.40
2018-01-07T03:29:23.334Z,3.50
2018-01-07T03:31:49.513Z,3.50
2018-01-07T03:34:16.414Z,3.50
2018-01-07T03:36:42.587Z,3.50
2018-01-07T03:39:08.758Z,3.60
2018-01-07T03:41:34.947Z,3.50
2018-01-07T03:44:01.147Z,3.50
2018-01-07T03:46:27.368Z,3.60
2018-01-07T03:48:53.634Z,3.70
2018-01-07T03:51:20.568Z,3.70
2018-01-07T03:53:47.470Z,3.70
2018-01-07T03:56:13.632Z,3.60
2018-01-07T03:58:40.547Z,3.60
2018-01-07T04:01:06.782Z,3.60
2018-01-07T04:03:32.998Z,3.70
2018-01-07T04:05:59.183Z,3.60
2018-01-07T04:08:26.152Z,3.70
2018-01-07T04:10:52.388Z,3.70
2018-01-07T04:13:18.671Z,3.60
2018-01-07T04:15:44.850Z,3.70
2018-01-07T04:18:10.993Z,3.70
2018-01-07T04:20:37.159Z,3.80
2018-01-07T04:23:03.327Z,3.70
2018-01-07T04:25:29.563Z,3.80
2018-01-07T04:27:55.799Z,3.80
2018-01-07T04:30:21.948Z,3.90
2018-01-07T04:32:48.126Z,3.90
2018-01-07T04:35:14.342Z,3.90
2018-01-07T04:37:41.225Z,4.00
2018-01-07T04:40:07.394Z,4.00
2018-01-07T04:42:34.062Z,4.10
2018-01-07T04:45:00.259Z,4.20
2018-01-07T04:47:26.466Z,4.20
2018-01-07T04:49:53.384Z,4.20
2018-01-07T04:52:19.645Z,4.20
2018-01-07T04:54:45.839Z,4.20
2018-01-07T04:57:12.174Z,4.20
2018-01-07T04:59:38.378Z,4.30
2018-01-07T05:02:04.576Z,4.30
2018-01-07T05:04:30.815Z,4.40
2018-01-07T05:06:57.720Z,4.30
2018-01-07T05:09:23.913Z,4.30
2018-01-07T05:11:50.063Z,4.50
2018-01-07T05:14:16.238Z,4.50
2018-01-07T05:16:43.229Z,4.50
2018-01-07T05:19:09.397Z,4.50
2018-01-07T05:21:36.386Z,4.60
2018-01-07T05:24:02.538Z,4.60
2018-01-07T05:26:28.739Z,4.70
2018-01-07T05:28:54.908Z,4.60
2018-01-07T05:31:21.831Z,4.60
2018-01-07T05:33:48.067Z,4.60
2018-01-07T05:36:14.281Z,4.50
2018-01-07T05:38:40.510Z,4.50
2018-01-07T05:41:06.663Z,4.40
2018-01-07T05:43:32.828Z,4.50
2018-01-07T05:46:23.202Z,4.70
2018-01-07T05:48:49.371Z,4.70
2018-01-07T05:51:15.514Z,4.70
2018-01-07T05:53:41.647Z,4.60
2018-01-07T05:56:07.841Z,4.80
2018-01-07T05:58:34.058Z,4.90
2018-01-07T06:01:00.328Z,5.00
2018-01-07T06:03:26.469Z,5.00
2018-01-07T06:05:52.631Z,5.00
2018-01-07T06:08:19.556Z,5.10
2018-01-07T06:10:45.740Z,5.10
2018-01-07T06:13:11.876Z,5.20
2018-01-07T06:15:38.071Z,5.10
2018-01-07T06:18:04.269Z,5.20
2018-01-07T06:20:30.430Z,5.30
2018-01-07T06:22:56.609Z,5.40
2018-01-07T06:25:22.796Z,5.60
2018-01-07T06:27:48.958Z,5.70
2018-01-07T06:30:15.134Z,5.90
2018-01-07T06:32:42.138Z,6.10
2018-01-07T06:35:08.364Z,6.10
2018-01-07T06:37:34.645Z,6.10
2018-01-07T06:40:00.863Z,6.20
2018-01-07T06:42:30.656Z,6.20
2018-01-07T06:44:56.910Z,6.20
2018-01-07T06:47:23.057Z,6.20
2018-01-07T06:49:49.232Z,6.10
2018-01-07T06:52:15.455Z,6.20
2018-01-07T06:54:41.662Z,6.20
2018-01-07T06:57:07.933Z,6.10
2018-01-07T06:59:34.859Z,6.20
2018-01-07T07:02:01.775Z,6.20
2018-01-07T07:04:27.943Z,6.20
2018-01-07T07:06:54.140Z,6.20
2018-01-07T07:09:20.271Z,6.20
2018-01-07T07:11:46.423Z,6.20
2018-01-07T07:14:12.614Z,6.10
2018-01-07T07:16:38.831Z,6.10
2018-01-07T07:19:05.102Z,6.20
2018-01-07T07:21:31.283Z,6.10
2018-01-07T07:23:57.439Z,6.20
2018-01-07T07:26:23.633Z,6.20
2018-01-07T07:28:49.853Z,6.10
2018-01-07T07:31:16.083Z,6.10
2018-01-07T07:33:42.270Z,6.10
2018-01-07T07:36:09.220Z,6.20
2018-01-07T07:38:36.150Z,6.20
2018-01-07T07:41:02.396Z,6.20
2018-01-07T07:43:29.328Z,6.20
2018-01-07T07:45:55.530Z,6.20
2018-01-07T07:48:21.730Z,6.20
2018-01-07T07:50:47.974Z,6.20
2018-01-07T07:53:14.201Z,6.20
2018-01-07T07:55:40.371Z,6.20
2018-01-07T07:58:06.600Z,6.20
2018-01-07T08:00:32.874Z,6.20
2018-01-07T08:02:59.044Z,6.20
2018-01-07T08:05:26.015Z,6.20
2018-01-07T08:07:53.006Z,6.20
2018-01-07T08:10:19.187Z,6.20
2018-01-07T08:12:46.178Z,6.10
2018-01-07T08:15:12.353Z,6.10
2018-01-07T08:17:38.564Z,6.20
2018-01-07T08:20:05.488Z,6.10
2018-01-07T08:22:31.678Z,6.10
2018-01-07T08:24:58.174Z,6.10
2018-01-07T08:27:24.438Z,6.20
2018-01-07T08:29:50.584Z,6.20
2018-01-07T08:32:16.868Z,6.10
2018-01-07T08:34:43.073Z,6.10
2018-01-07T08:37:09.269Z,6.20
2018-01-07T08:39:35.439Z,6.10
2018-01-07T08:42:01.639Z,6.10
2018-01-07T08:44:27.833Z,6.10
2018-01-07T08:46:54.041Z,6.00
2018-01-07T08:49:20.259Z,6.00
2018-01-07T08:51:47.200Z,6.10
2018-01-07T08:54:14.147Z,6.10
2018-01-07T08:56:40.488Z,6.10
2018-01-07T08:59:07.382Z,6.10
2018-01-07T09:01:33.602Z,6.10
2018-01-07T09:03:59.791Z,6.10
2018-01-07T09:06:26.706Z,6.10
2018-01-07T09:08:52.880Z,6.10
2018-01-07T09:11:19.770Z,6.10
2018-01-07T09:13:45.978Z,6.10
2018-01-07T09:16:12.279Z,6.10
2018-01-07T09:18:39.234Z,6.10
2018-01-07T09:21:05.464Z,6.10
2018-01-07T09:23:31.821Z,6.10
2018-01-07T09:25:58.054Z,6.20
2018-01-07T09:28:24.169Z,6.20
2018-01-07T09:30:50.375Z,6.10
2018-01-07T09:33:16.643Z,6.10
2018-01-07T09:35:42.868Z,6.10
2018-01-07T09:38:09.048Z,6.10
2018-01-07T09:40:36.000Z,6.20
2018-01-07T09:43:02.258Z,6.20
2018-01-07T09:45:28.472Z,6.20
2018-01-07T09:47:54.664Z,6.30
2018-01-07T09:50:20.826Z,6.30
2018-01-07T09:52:47.247Z,6.30
2018-01-07T09:55:13.457Z,6.20
2018-01-07T09:57:40.407Z,6.30
2018-01-07T10:00:07.554Z,6.30
2018-01-07T10:02:34.462Z,6.30
2018-01-07T10:05:00.660Z,6.30
2018-01-07T10:07:27.113Z,6.40
2018-01-07T10:09:53.271Z,6.40
2018-01-07T10:12:20.205Z,6.40
2018-01-07T10:14:46.467Z,6.40
2018-01-07T10:17:12.796Z,6.40
2018-01-07T10:19:39.726Z,6.40
2018-01-07T10:22:06.740Z,6.40
2018-01-07T10:24:32.944Z,6.40
2018-01-07T10:26:59.179Z,6.40
2018-01-07T10:29:25.402Z,6.50
2018-01-07T10:31:51.574Z,6.40
2018-01-07T10:34:19.151Z,6.40
2018-01-07T10:36:46.074Z,6.50
2018-01-07T10:39:12.279Z,6.50
2018-01-07T10:41:38.668Z,6.50
2018-01-07T10:44:05.538Z,6.50
2018-01-07T10:46:31.878Z,6.50
2018-01-07T10:48:58.291Z,6.40
2018-01-07T10:51:24.452Z,6.50
2018-01-07T10:53:50.638Z,6.50
2018-01-07T10:56:17.696Z,6.60
2018-01-07T10:58:43.896Z,6.60
2018-01-07T11:01:16.885Z,6.70
2018-01-07T11:03:43.815Z,6.70
2018-01-07T11:06:10.050Z,6.70
2018-01-07T11:08:38.258Z,6.70
2018-01-07T11:11:04.436Z,6.70
2018-01-07T11:13:30.620Z,6.70
2018-01-07T11:15:56.854Z,6.70
2018-01-07T11:18:23.953Z,6.60
2018-01-07T11:20:50.176Z,6.60
2018-01-07T11:23:17.283Z,6.70
2018-01-07T11:25:43.696Z,6.60
2018-01-07T11:28:09.927Z,6.70
2018-01-07T11:30:36.345Z,6.70
2018-01-07T11:33:02.949Z,6.70
2018-01-07T11:35:33.298Z,6.70
2018-01-07T11:37:59.549Z,6.70
2018-01-07T11:40:25.781Z,6.70
2018-01-07T11:42:53.051Z,6.80
2018-01-07T11:45:19.328Z,6.80
2018-01-07T11:47:45.462Z,6.90
2018-01-07T11:50:11.951Z,6.90
2018-01-07T11:52:38.462Z,6.90
2018-01-07T11:55:04.896Z,6.80
2018-01-07T11:57:32.174Z,6.80
2018-01-07T11:59:58.610Z,6.80
2018-01-07T12:02:25.018Z,6.70
2018-01-07T12:04:51.452Z,6.80
2018-01-07T12:07:18.547Z,6.80
2018-01-07T12:09:46.762Z,6.80
2018-01-07T12:12:13.188Z,6.80
2018-01-07T12:14:39.620Z,6.80
2018-01-07T12:17:06.113Z,6.90
2018-01-07T12:19:32.325Z,6.90
2018-01-07T12:21:58.540Z,6.80
2018-01-07T12:24:25.009Z,6.90
2018-01-07T12:26:51.184Z,6.70
2018-01-07T12:29:17.427Z,6.70
2018-01-07T12:31:43.644Z,6.60
2018-01-07T12:34:09.898Z,6.60
2018-01-07T12:36:36.118Z,6.70
2018-01-07T12:39:02.342Z,6.60
2018-01-07T12:41:28.558Z,6.50
2018-01-07T12:43:54.784Z,6.60
2018-01-07T12:46:21.026Z,6.60
2018-01-07T12:51:28.896Z,6.60
2018-01-07T12:53:55.772Z,6.70
2018-01-07T12:56:22.043Z,6.70
2018-01-07T12:58:48.234Z,6.70
2018-01-07T13:01:14.486Z,6.70
2018-01-07T13:03:40.651Z,6.60
2018-01-07T13:06:06.837Z,6.60
2018-01-07T13:08:33.024Z,6.60
2018-01-07T13:10:59.913Z,6.50
2018-01-07T13:13:26.117Z,6.50
2018-01-07T13:15:52.372Z,6.60
2018-01-07T13:18:18.630Z,6.50
2018-01-07T13:20:44.837Z,6.60
2018-01-07T13:23:11.032Z,6.50
2018-01-07T13:25:37.225Z,6.60
2018-01-07T13:28:04.166Z,6.60
2018-01-07T13:30:30.321Z,6.60
2018-01-07T13:32:56.445Z,6.70
2018-01-07T13:35:22.684Z,6.60
2018-01-07T13:37:48.910Z,6.60
2018-01-07T13:40:15.107Z,6.60
2018-01-07T13:42:42.003Z,6.60
2018-01-07T13:45:08.267Z,6.60
2018-01-07T13:47:34.430Z,6.60
2018-01-07T13:50:00.632Z,6.60
2018-01-07T13:52:27.605Z,6.70
2018-01-07T13:54:53.758Z,6.70
2018-01-07T13:57:19.959Z,6.70
2018-01-07T13:59:46.192Z,6.70
2018-01-07T14:02:12.414Z,6.90
2018-01-07T14:04:38.577Z,6.70
2018-01-07T14:07:04.851Z,6.80
2018-01-07T14:09:32.156Z,6.70
2018-01-07T14:11:58.324Z,6.60
2018-01-07T14:14:24.596Z,6.60
2018-01-07T14:16:50.802Z,6.70
2018-01-07T14:19:17.773Z,6.70
2018-01-07T14:21:43.981Z,6.70
2018-01-07T14:24:10.213Z,6.60
2018-01-07T14:26:36.366Z,6.60
2018-01-07T14:29:02.592Z,6.50
2018-01-07T14:31:28.777Z,6.50
2018-01-07T14:33:56.344Z,6.40
2018-01-07T14:36:22.590Z,6.40
2018-01-07T14:38:48.854Z,6.40
2018-01-07T14:41:15.087Z,6.40
2018-01-07T14:43:41.306Z,6.30
2018-01-07T14:46:07.498Z,6.30
2018-01-07T14:48:33.625Z,6.30
2018-01-07T14:50:59.852Z,6.30
2018-01-07T14:53:26.410Z,6.20
2018-01-07T14:55:52.601Z,6.20
2018-01-07T14:58:19.547Z,6.30
2018-01-07T15:00:45.793Z,6.30
2018-01-07T15:03:12.096Z,6.30
2018-01-07T15:05:39.004Z,6.30
2018-01-07T15:08:05.269Z,6.30
2018-01-07T15:10:32.486Z,6.40
2018-01-07T15:12:58.741Z,6.40
2018-01-07T15:15:25.697Z,6.40
2018-01-07T15:17:52.743Z,6.40
2018-01-07T15:20:19.663Z,6.40
2018-01-07T15:22:45.920Z,6.40
2018-01-07T15:25:12.797Z,6.50
2018-01-07T15:27:38.947Z,6.50
2018-01-07T15:30:05.154Z,6.40
2018-01-07T15:32:31.422Z,6.40
2018-01-07T15:34:57.584Z,6.40
2018-01-07T15:37:23.865Z,6.40
2018-01-07T15:39:50.278Z,6.40
2018-01-07T15:42:16.532Z,6.60
2018-01-07T15:44:42.739Z,6.60
2018-01-07T15:47:09.010Z,6.50
2018-01-07T15:49:36.036Z,6.40
2018-01-07T15:52:02.288Z,6.40
2018-01-07T15:54:29.253Z,6.40
2018-01-07T15:56:56.172Z,6.40
2018-01-07T15:59:22.403Z,6.40
2018-01-07T16:01:49.322Z,7.30
2018-01-07T16:04:15.784Z,7.30
2018-01-07T16:06:42.749Z,7.60
2018-01-07T16:09:09.667Z,7.40
2018-01-07T16:11:35.829Z,7.40
2018-01-07T16:14:02.111Z,7.00
2018-01-07T16:16:28.306Z,6.80
2018-01-07T16:18:54.543Z,6.60
2018-01-07T16:21:20.781Z,6.50
2018-01-07T16:23:46.975Z,6.50
2018-01-07T16:26:20.213Z,6.50
2018-01-07T16:28:46.386Z,6.40
2018-01-07T16:31:12.593Z,6.40
2018-01-07T16:33:39.559Z,6.40
2018-01-07T16:36:05.783Z,6.40
2018-01-07T16:38:32.689Z,6.50
2018-01-07T16:40:58.850Z,6.50
2018-01-07T16:43:25.827Z,6.40
2018-01-07T16:45:52.027Z,6.30
2018-01-07T16:48:18.293Z,6.40
2018-01-07T16:50:44.512Z,6.30
2018-01-07T16:53:10.747Z,6.40
2018-01-07T16:55:36.961Z,6.40
2018-01-07T16:58:03.230Z,6.40
2018-01-07T17:00:29.567Z,6.40
2018-01-07T17:02:55.754Z,6.40
2018-01-07T17:05:21.952Z,6.30
2018-01-07T17:07:48.879Z,6.30
2018-01-07T17:10:15.764Z,6.40
2018-01-07T17:12:42.026Z,6.40
2018-01-07T17:15:08.274Z,6.40
2018-01-07T17:17:34.476Z,6.30
2018-01-07T17:20:00.746Z,6.30
2018-01-07T17:22:27.715Z,6.50
2018-01-07T17:24:53.948Z,6.50
2018-01-07T17:27:20.155Z,6.50
2018-01-07T17:29:47.040Z,6.30
2018-01-07T17:32:13.199Z,6.30
2018-01-07T17:34:39.500Z,6.20
2018-01-07T17:37:05.722Z,6.20
2018-01-07T17:39:31.887Z,6.30
2018-01-07T17:41:58.076Z,6.30
2018-01-07T17:44:24.282Z,6.40
2018-01-07T17:46:50.518Z,6.40
2018-01-07T17:49:16.709Z,6.40
2018-01-07T17:51:43.723Z,6.30
2018-01-07T17:54:09.920Z,6.30
2018-01-07T17:56:36.148Z,6.20
2018-01-07T17:59:02.408Z,6.20
2018-01-07T18:01:28.631Z,6.20
2018-01-07T18:03:54.905Z,6.10
2018-01-07T18:06:21.852Z,6.20
2018-01-07T18:08:48.791Z,6.20
2018-01-07T18:11:15.774Z,6.20
2018-01-07T18:13:42.025Z,6.20
2018-01-07T18:16:08.206Z,6.20
2018-01-07T18:18:35.169Z,6.20
2018-01-07T18:21:01.395Z,6.20
2018-01-07T18:23:27.628Z,6.20
2018-01-07T18:25:53.852Z,6.10
2018-01-07T18:28:20.067Z,6.20
2018-01-07T18:30:47.011Z,6.10
2018-01-07T18:33:14.020Z,6.10
2018-01-07T18:35:40.291Z,6.10
2018-01-07T18:38:06.454Z,6.20
2018-01-07T18:40:32.701Z,6.10
2018-01-07T18:42:58.938Z,6.10
2018-01-07T18:45:25.115Z,6.00
2018-01-07T18:47:51.368Z,6.10
2018-01-07T18:50:18.304Z,6.10
2018-01-07T18:52:44.532Z,6.10
2018-01-07T18:55:10.806Z,6.00
2018-01-07T18:57:37.038Z,6.10
2018-01-07T19:00:04.033Z,6.10
2018-01-07T19:02:30.274Z,6.10
2018-01-07T19:04:56.513Z,6.10
2018-01-07T19:07:22.760Z,6.00
2018-01-07T19:09:49.721Z,6.00
2018-01-07T19:12:16.767Z,6.10
2018-01-07T19:14:43.763Z,6.10
2018-01-07T19:17:10.314Z,6.10
2018-01-07T19:19:36.594Z,6.10
2018-01-07T19:22:03.495Z,6.00
2018-01-07T19:24:29.734Z,6.00
2018-01-07T19:26:55.906Z,6.00
2018-01-07T19:29:22.162Z,5.90
2018-01-07T19:31:48.478Z,5.90
2018-01-07T19:34:14.681Z,5.90
2018-01-07T19:36:41.656Z,6.00
2018-01-07T19:39:07.992Z,6.00
2018-01-07T19:41:35.072Z,6.00
2018-01-07T19:44:01.365Z,6.00
2018-01-07T19:46:27.576Z,5.90
2018-01-07T19:48:53.785Z,5.90
2018-01-07T19:51:20.899Z,5.90
2018-01-07T19:53:47.085Z,5.90
2018-01-07T19:56:13.252Z,5.90
2018-01-07T19:58:39.440Z,6.00
2018-01-07T20:01:05.824Z,5.90
2018-01-07T20:03:32.860Z,5.90
2018-01-07T20:05:59.025Z,5.90
2018-01-07T20:08:26.134Z,6.00
2018-01-07T20:10:53.067Z,5.90
2018-01-07T20:13:19.235Z,6.00
2018-01-07T20:15:45.408Z,6.00
2018-01-07T20:18:11.663Z,6.00
2018-01-07T20:20:38.174Z,5.90
2018-01-07T20:23:04.512Z,6.00
2018-01-07T20:25:31.052Z,5.90
2018-01-07T20:27:57.367Z,6.00
2018-01-07T20:30:24.029Z,5.90
2018-01-07T20:32:50.310Z,5.90
2018-01-07T20:35:16.468Z,5.90
2018-01-07T20:37:43.161Z,5.90
2018-01-07T20:40:09.436Z,5.90
2018-01-07T20:42:35.733Z,6.00
2018-01-07T20:45:02.743Z,6.00
2018-01-07T20:47:30.424Z,5.90
2018-01-07T20:49:57.389Z,5.90
2018-01-07T20:52:24.341Z,5.90
2018-01-07T20:54:51.268Z,5.90
2018-01-07T20:57:18.249Z,6.00
2018-01-07T20:59:44.504Z,6.00
2018-01-07T21:02:10.763Z,6.00
2018-01-07T21:04:37.750Z,6.00
2018-01-07T21:07:05.013Z,6.00
2018-01-07T21:09:31.470Z,6.00
2018-01-07T21:11:57.917Z,5.90
2018-01-07T21:14:24.347Z,5.90
2018-01-07T21:16:50.807Z,5.90
2018-01-07T21:19:17.250Z,6.00
2018-01-07T21:21:43.688Z,5.90
2018-01-07T21:24:10.137Z,5.90
2018-01-07T21:26:36.701Z,5.90
2018-01-07T21:29:02.938Z,5.90
2018-01-07T21:31:29.202Z,6.00
2018-01-07T21:33:56.206Z,6.00
2018-01-07T21:36:22.410Z,6.00
2018-01-07T21:38:48.639Z,6.00
2018-01-07T21:41:14.798Z,5.90
2018-01-07T21:43:41.098Z,5.90
2018-01-07T21:46:07.310Z,5.90
2018-01-07T21:48:33.541Z,5.90
2018-01-07T21:50:59.748Z,5.90
2018-01-07T21:53:26.749Z,5.90
2018-01-07T21:55:52.924Z,5.90
2018-01-07T21:58:19.837Z,5.90
2018-01-07T22:00:58.407Z,5.90
2018-01-07T22:03:36.908Z,5.90
2018-01-07T22:06:16.107Z,5.80
2018-01-07T22:08:42.285Z,5.80
2018-01-07T22:11:08.502Z,5.80
2018-01-07T22:13:34.774Z,5.80
2018-01-07T22:16:00.939Z,5.80
2018-01-07T22:18:27.873Z,5.90
2018-01-07T22:20:54.098Z,5.90
2018-01-07T22:23:20.312Z,5.90
2018-01-07T22:25:46.545Z,5.90
2018-01-07T22:28:12.765Z,5.90
2018-01-07T22:30:38.969Z,5.90
2018-01-07T22:33:05.143Z,6.00
2018-01-07T22:35:31.408Z,5.90
2018-01-07T22:37:57.637Z,5.90
2018-01-07T22:40:23.883Z,5.80
2018-01-07T22:42:50.089Z,5.80
2018-01-07T22:45:16.288Z,5.80
2018-01-07T22:47:49.270Z,5.80
2018-01-07T22:50:16.200Z,5.90
2018-01-07T22:52:42.352Z,5.80
2018-01-07T22:55:09.289Z,5.90
2018-01-07T22:57:36.277Z,5.90
2018-01-07T23:00:02.545Z,5.90
2018-01-07T23:02:28.766Z,5.90
2018-01-07T23:04:55.029Z,5.80
2018-01-07T23:07:21.998Z,5.80
2018-01-07T23:09:48.199Z,5.80
2018-01-07T23:12:15.144Z,5.90
2018-01-07T23:14:42.132Z,5.90
2018-01-07T23:17:08.340Z,5.90
2018-01-07T23:19:34.573Z,5.90
2018-01-07T23:22:00.844Z,5.80
2018-01-07T23:24:27.009Z,5.80
2018-01-07T23:26:53.974Z,5.90
2018-01-07T23:29:20.191Z,5.90
2018-01-07T23:31:46.388Z,5.90
2018-01-07T23:34:12.563Z,5.90
2018-01-07T23:36:38.782Z,5.90
2018-01-07T23:39:04.951Z,5.90
2018-01-07T23:41:31.114Z,5.90
2018-01-07T23:43:58.086Z,5.80
2018-01-07T23:46:24.312Z,5.80
2018-01-07T23:48:50.532Z,5.90
2018-01-07T23:51:16.727Z,5.90
2018-01-07T23:53:42.944Z,5.90
2018-01-07T23:56:09.137Z,5.90
2018-01-07T23:58:35.350Z,5.90
